sensor_id;sensor_type;location;lat;lon;timestamp;pressure;altitude;pressure_sealevel;temperature;humidity
71638;BME280;59485;43.542;-5.676;2023-09-19T00:01:33;101939.41;;;20.02;100.00
71638;BME280;59485;43.542;-5.676;2023-09-19T00:03:58;101940.13;;;19.91;100.00
71638;BME280;59485;43.542;-5.676;2023-09-19T00:06:24;101944.84;;;19.91;100.00
71638;BME280;59485;43.542;-5.676;2023-09-19T00:08:51;101942.06;;;19.91;100.00
71638;BME280;59485;43.542;-5.676;2023-09-19T00:11:17;101936.97;;;19.81;100.00
71638;BME280;59485;43.542;-5.676;2023-09-19T00:13:43;101941.69;;;19.80;100.00
71638;BME280;59485;43.542;-5.676;2023-09-19T00:16:10;101937.13;;;19.93;100.00
71638;BME280;59485;43.542;-5.676;2023-09-19T00:18:40;101940.72;;;20.00;100.00
71638;BME280;59485;43.542;-5.676;2023-09-19T00:21:05;101937.97;;;19.93;100.00
71638;BME280;59485;43.542;-5.676;2023-09-19T00:23:32;101937.66;;;20.08;100.00
71638;BME280;59485;43.542;-5.676;2023-09-19T00:25:59;101936.16;;;20.05;100.00
71638;BME280;59485;43.542;-5.676;2023-09-19T00:28:24;101927.81;;;20.05;100.00
71638;BME280;59485;43.542;-5.676;2023-09-19T00:30:50;101925.44;;;20.09;100.00
71638;BME280;59485;43.542;-5.676;2023-09-19T00:33:15;101935.31;;;20.05;100.00
71638;BME280;59485;43.542;-5.676;2023-09-19T00:36:01;101938.22;;;20.16;100.00
71638;BME280;59485;43.542;-5.676;2023-09-19T00:38:30;101931.22;;;20.07;100.00
71638;BME280;59485;43.542;-5.676;2023-09-19T00:40:57;101932.34;;;20.00;100.00
71638;BME280;59485;43.542;-5.676;2023-09-19T00:43:25;101930.59;;;20.05;100.00
71638;BME280;59485;43.542;-5.676;2023-09-19T00:45:54;101922.88;;;20.07;100.00
71638;BME280;59485;43.542;-5.676;2023-09-19T00:48:23;101931.81;;;20.16;100.00
71638;BME280;59485;43.542;-5.676;2023-09-19T00:50:54;101920.59;;;20.29;100.00
71638;BME280;59485;43.542;-5.676;2023-09-19T00:53:21;101924.44;;;20.28;100.00
71638;BME280;59485;43.542;-5.676;2023-09-19T00:55:49;101925.53;;;20.27;100.00
71638;BME280;59485;43.542;-5.676;2023-09-19T00:58:17;101918.88;;;20.28;100.00
71638;BME280;59485;43.542;-5.676;2023-09-19T01:00:48;101927.03;;;20.23;100.00
71638;BME280;59485;43.542;-5.676;2023-09-19T01:03:18;101932.00;;;20.21;100.00
71638;BME280;59485;43.542;-5.676;2023-09-19T01:05:44;101921.47;;;20.23;100.00
71638;BME280;59485;43.542;-5.676;2023-09-19T01:08:10;101932.59;;;20.23;100.00
71638;BME280;59485;43.542;-5.676;2023-09-19T01:10:46;101928.53;;;20.26;100.00
71638;BME280;59485;43.542;-5.676;2023-09-19T01:15:49;101925.53;;;20.27;100.00
71638;BME280;59485;43.542;-5.676;2023-09-19T01:29:16;101911.19;;;20.23;100.00
71638;BME280;59485;43.542;-5.676;2023-09-19T01:31:51;101910.97;;;20.25;100.00
71638;BME280;59485;43.542;-5.676;2023-09-19T01:34:19;101906.53;;;20.17;100.00
71638;BME280;59485;43.542;-5.676;2023-09-19T01:36:45;101906.97;;;20.14;100.00
71638;BME280;59485;43.542;-5.676;2023-09-19T01:39:12;101903.34;;;20.14;100.00
71638;BME280;59485;43.542;-5.676;2023-09-19T01:41:44;101901.03;;;20.11;100.00
71638;BME280;59485;43.542;-5.676;2023-09-19T01:44:31;101901.03;;;20.04;100.00
71638;BME280;59485;43.542;-5.676;2023-09-19T01:47:13;101895.03;;;20.07;100.00
71638;BME280;59485;43.542;-5.676;2023-09-19T01:49:55;101892.88;;;20.09;100.00
71638;BME280;59485;43.542;-5.676;2023-09-19T01:52:23;101892.47;;;20.06;100.00
71638;BME280;59485;43.542;-5.676;2023-09-19T01:54:56;101903.34;;;20.14;100.00
71638;BME280;59485;43.542;-5.676;2023-09-19T01:57:29;101899.03;;;20.18;100.00
71638;BME280;59485;43.542;-5.676;2023-09-19T02:00:14;101893.75;;;20.10;100.00
71638;BME280;59485;43.542;-5.676;2023-09-19T02:02:45;101884.66;;;20.21;100.00
71638;BME280;59485;43.542;-5.676;2023-09-19T02:05:12;101887.25;;;20.16;100.00
71638;BME280;59485;43.542;-5.676;2023-09-19T02:07:40;101881.41;;;20.24;100.00
71638;BME280;59485;43.542;-5.676;2023-09-19T02:10:07;101882.47;;;20.23;100.00
71638;BME280;59485;43.542;-5.676;2023-09-19T02:12:33;101878.03;;;20.22;100.00
71638;BME280;59485;43.542;-5.676;2023-09-19T02:14:59;101874.81;;;20.18;100.00
71638;BME280;59485;43.542;-5.676;2023-09-19T02:17:25;101881.41;;;20.24;100.00
71638;BME280;59485;43.542;-5.676;2023-09-19T02:19:54;101876.47;;;20.26;100.00
71638;BME280;59485;43.542;-5.676;2023-09-19T02:22:21;101870.97;;;20.19;100.00
71638;BME280;59485;43.542;-5.676;2023-09-19T02:24:48;101865.63;;;20.18;100.00
71638;BME280;59485;43.542;-5.676;2023-09-19T02:27:14;101865.41;;;20.19;100.00
71638;BME280;59485;43.542;-5.676;2023-09-19T02:29:42;101867.31;;;20.19;100.00
71638;BME280;59485;43.542;-5.676;2023-09-19T02:32:07;101868.41;;;20.18;100.00
71638;BME280;59485;43.542;-5.676;2023-09-19T02:34:35;101866.97;;;20.09;100.00
71638;BME280;59485;43.542;-5.676;2023-09-19T02:37:03;101862.72;;;20.06;100.00
71638;BME280;59485;43.542;-5.676;2023-09-19T02:39:31;101856.97;;;20.01;100.00
71638;BME280;59485;43.542;-5.676;2023-09-19T02:41:56;101853.78;;;19.98;100.00
71638;BME280;59485;43.542;-5.676;2023-09-19T02:44:22;101857.19;;;20.00;100.00
71638;BME280;59485;43.542;-5.676;2023-09-19T02:46:49;101853.13;;;20.02;100.00
71638;BME280;59485;43.542;-5.676;2023-09-19T02:49:14;101863.19;;;20.03;100.00
71638;BME280;59485;43.542;-5.676;2023-09-19T02:51:40;101860.69;;;19.95;100.00
71638;BME280;59485;43.542;-5.676;2023-09-19T02:54:06;101850.22;;;19.91;100.00
71638;BME280;59485;43.542;-5.676;2023-09-19T02:56:31;101856.91;;;19.83;100.00
71638;BME280;59485;43.542;-5.676;2023-09-19T02:58:57;101857.91;;;19.95;100.00
71638;BME280;59485;43.542;-5.676;2023-09-19T03:01:23;101854.97;;;19.83;100.00
71638;BME280;59485;43.542;-5.676;2023-09-19T03:03:49;101858.84;;;19.82;100.00
71638;BME280;59485;43.542;-5.676;2023-09-19T03:06:15;101848.78;;;19.81;100.00
71638;BME280;59485;43.542;-5.676;2023-09-19T03:08:41;101845.34;;;19.79;100.00
71638;BME280;59485;43.542;-5.676;2023-09-19T03:11:10;101844.28;;;19.80;100.00
71638;BME280;59485;43.542;-5.676;2023-09-19T03:13:37;101855.34;;;19.87;100.00
71638;BME280;59485;43.542;-5.676;2023-09-19T03:16:06;101850.47;;;19.82;100.00
71638;BME280;59485;43.542;-5.676;2023-09-19T03:18:34;101849.84;;;19.80;100.00
71638;BME280;59485;43.542;-5.676;2023-09-19T03:20:59;101854.19;;;19.76;100.00
71638;BME280;59485;43.542;-5.676;2023-09-19T03:23:26;101857.41;;;19.73;100.00
71638;BME280;59485;43.542;-5.676;2023-09-19T03:25:53;101850.56;;;19.69;100.00
71638;BME280;59485;43.542;-5.676;2023-09-19T03:28:19;101848.88;;;19.68;100.00
71638;BME280;59485;43.542;-5.676;2023-09-19T03:30:46;101849.97;;;19.67;100.00
71638;BME280;59485;43.542;-5.676;2023-09-19T03:33:12;101850.94;;;19.79;100.00
71638;BME280;59485;43.542;-5.676;2023-09-19T03:35:38;101852.28;;;19.70;100.00
71638;BME280;59485;43.542;-5.676;2023-09-19T03:38:05;101844.03;;;19.57;100.00
71638;BME280;59485;43.542;-5.676;2023-09-19T03:40:30;101846.84;;;19.51;100.00
71638;BME280;59485;43.542;-5.676;2023-09-19T03:42:56;101843.00;;;19.45;100.00
71638;BME280;59485;43.542;-5.676;2023-09-19T03:45:25;101834.69;;;19.38;100.00
71638;BME280;59485;43.542;-5.676;2023-09-19T03:47:51;101835.97;;;19.36;100.00
71638;BME280;59485;43.542;-5.676;2023-09-19T03:50:16;101828.53;;;19.30;100.00
71638;BME280;59485;43.542;-5.676;2023-09-19T03:52:44;101833.69;;;19.26;100.00
71638;BME280;59485;43.542;-5.676;2023-09-19T03:55:09;101833.34;;;19.09;100.00
71638;BME280;59485;43.542;-5.676;2023-09-19T03:57:35;101830.59;;;19.03;100.00
71638;BME280;59485;43.542;-5.676;2023-09-19T04:00:02;101834.44;;;19.02;100.00
71638;BME280;59485;43.542;-5.676;2023-09-19T04:02:27;101838.78;;;18.85;100.00
71638;BME280;59485;43.542;-5.676;2023-09-19T04:04:58;101832.34;;;18.91;100.00
71638;BME280;59485;43.542;-5.676;2023-09-19T04:07:24;101831.06;;;18.93;100.00
71638;BME280;59485;43.542;-5.676;2023-09-19T04:09:51;101837.50;;;18.81;100.00
71638;BME280;59485;43.542;-5.676;2023-09-19T04:12:18;101833.03;;;18.80;100.00
71638;BME280;59485;43.542;-5.676;2023-09-19T04:14:44;101835.19;;;18.78;100.00
71638;BME280;59485;43.542;-5.676;2023-09-19T04:17:10;101833.22;;;18.85;100.00
71638;BME280;59485;43.542;-5.676;2023-09-19T04:19:36;101833.66;;;18.82;100.00
71638;BME280;59485;43.542;-5.676;2023-09-19T04:22:02;101836.06;;;18.65;100.00
71638;BME280;59485;43.542;-5.676;2023-09-19T04:24:29;101836.28;;;18.63;100.00
71638;BME280;59485;43.542;-5.676;2023-09-19T04:26:54;101833.72;;;18.62;100.00
71638;BME280;59485;43.542;-5.676;2023-09-19T04:29:20;101832.47;;;18.58;100.00
71638;BME280;59485;43.542;-5.676;2023-09-19T04:31:45;101828.56;;;18.52;100.00
71638;BME280;59485;43.542;-5.676;2023-09-19T04:34:11;101825.19;;;18.57;100.00
71638;BME280;59485;43.542;-5.676;2023-09-19T04:36:42;101820.50;;;18.51;100.00
71638;BME280;59485;43.542;-5.676;2023-09-19T04:39:09;101830.75;;;18.50;100.00
71638;BME280;59485;43.542;-5.676;2023-09-19T04:41:36;101840.13;;;18.56;100.00
71638;BME280;59485;43.542;-5.676;2023-09-19T04:44:05;101829.88;;;18.63;100.00
71638;BME280;59485;43.542;-5.676;2023-09-19T04:46:36;101836.72;;;18.67;100.00
71638;BME280;59485;43.542;-5.676;2023-09-19T04:49:01;101830.72;;;18.63;100.00
71638;BME280;59485;43.542;-5.676;2023-09-19T04:51:30;101829.88;;;18.63;100.00
71638;BME280;59485;43.542;-5.676;2023-09-19T04:54:00;101823.28;;;18.57;100.00
71638;BME280;59485;43.542;-5.676;2023-09-19T04:56:25;101822.59;;;18.55;100.00
71638;BME280;59485;43.542;-5.676;2023-09-19T04:58:51;101816.84;;;18.50;100.00
71638;BME280;59485;43.542;-5.676;2023-09-19T05:01:16;101814.69;;;18.52;100.00
71638;BME280;59485;43.542;-5.676;2023-09-19T05:03:42;101817.94;;;18.43;100.00
71638;BME280;59485;43.542;-5.676;2023-09-19T05:06:09;101811.97;;;18.39;100.00
71638;BME280;59485;43.542;-5.676;2023-09-19T05:08:35;101809.81;;;18.48;100.00
71638;BME280;59485;43.542;-5.676;2023-09-19T05:11:04;101815.34;;;18.54;100.00
71638;BME280;59485;43.542;-5.676;2023-09-19T05:13:29;101802.31;;;18.48;100.00
71638;BME280;59485;43.542;-5.676;2023-09-19T05:16:00;101804.91;;;18.50;100.00
71638;BME280;59485;43.542;-5.676;2023-09-19T05:18:27;101808.94;;;18.47;100.00
71638;BME280;59485;43.542;-5.676;2023-09-19T05:20:55;101807.22;;;18.53;100.00
71638;BME280;59485;43.542;-5.676;2023-09-19T05:23:24;101809.81;;;18.41;100.00
71638;BME280;59485;43.542;-5.676;2023-09-19T05:25:49;101804.69;;;18.45;100.00
71638;BME280;59485;43.542;-5.676;2023-09-19T05:28:14;101810.88;;;18.47;100.00
71638;BME280;59485;43.542;-5.676;2023-09-19T05:30:40;101817.06;;;18.49;100.00
71638;BME280;59485;43.542;-5.676;2023-09-19T05:33:09;101814.06;;;18.44;100.00
71638;BME280;59485;43.542;-5.676;2023-09-19T05:35:35;101816.00;;;18.36;100.00
71638;BME280;59485;43.542;-5.676;2023-09-19T05:38:07;101810.25;;;18.38;100.00
71638;BME280;59485;43.542;-5.676;2023-09-19T05:40:34;101820.72;;;18.29;100.00
71638;BME280;59485;43.542;-5.676;2023-09-19T05:43:00;101816.88;;;18.30;100.00
71638;BME280;59485;43.542;-5.676;2023-09-19T05:45:26;101820.53;;;18.31;100.00
71638;BME280;59485;43.542;-5.676;2023-09-19T05:47:52;101820.72;;;18.29;100.00
71638;BME280;59485;43.542;-5.676;2023-09-19T05:50:26;101820.97;;;18.21;100.00
71638;BME280;59485;43.542;-5.676;2023-09-19T05:52:52;101823.53;;;18.16;100.00
71638;BME280;59485;43.542;-5.676;2023-09-19T05:55:18;101813.50;;;18.22;100.00
71638;BME280;59485;43.542;-5.676;2023-09-19T05:57:52;101823.53;;;18.10;100.00
71638;BME280;59485;43.542;-5.676;2023-09-19T06:00:21;101819.03;;;18.09;100.00
71638;BME280;59485;43.542;-5.676;2023-09-19T06:02:55;101813.91;;;18.12;100.00
71638;BME280;59485;43.542;-5.676;2023-09-19T06:05:22;101820.75;;;18.16;100.00
71638;BME280;59485;43.542;-5.676;2023-09-19T06:07:48;101814.97;;;18.11;100.00
71638;BME280;59485;43.542;-5.676;2023-09-19T06:10:13;101826.50;;;18.08;100.00
71638;BME280;59485;43.542;-5.676;2023-09-19T06:12:40;101829.53;;;18.07;100.00
71638;BME280;59485;43.542;-5.676;2023-09-19T06:15:09;101825.00;;;17.99;100.00
71638;BME280;59485;43.542;-5.676;2023-09-19T06:17:38;101829.72;;;17.92;100.00
71638;BME280;59485;43.542;-5.676;2023-09-19T06:20:07;101831.63;;;17.91;100.00
71638;BME280;59485;43.542;-5.676;2023-09-19T06:22:44;101827.81;;;17.86;100.00
71638;BME280;59485;43.542;-5.676;2023-09-19T06:25:10;101832.50;;;18.05;100.00
71638;BME280;59485;43.542;-5.676;2023-09-19T06:27:40;101834.81;;;18.08;100.00
71638;BME280;59485;43.542;-5.676;2023-09-19T06:30:10;101839.75;;;17.93;100.00
71638;BME280;59485;43.542;-5.676;2023-09-19T06:32:40;101841.66;;;17.99;100.00
71638;BME280;59485;43.542;-5.676;2023-09-19T06:35:14;101838.06;;;18.05;100.00
71638;BME280;59485;43.542;-5.676;2023-09-19T06:37:40;101839.31;;;18.03;100.00
71638;BME280;59485;43.542;-5.676;2023-09-19T06:40:09;101837.19;;;18.11;100.00
71638;BME280;59485;43.542;-5.676;2023-09-19T06:42:46;101849.13;;;18.12;100.00
71638;BME280;59485;43.542;-5.676;2023-09-19T06:45:15;101850.00;;;18.12;100.00
71638;BME280;59485;43.542;-5.676;2023-09-19T06:47:48;101845.06;;;18.08;100.00
71638;BME280;59485;43.542;-5.676;2023-09-19T06:50:21;101855.53;;;18.12;100.00
71638;BME280;59485;43.542;-5.676;2023-09-19T06:52:51;101848.28;;;18.11;100.00
71638;BME280;59485;43.542;-5.676;2023-09-19T06:55:21;101843.38;;;18.13;100.00
71638;BME280;59485;43.542;-5.676;2023-09-19T06:57:49;101844.00;;;18.09;100.00
71638;BME280;59485;43.542;-5.676;2023-09-19T07:00:15;101845.72;;;18.23;100.00
71638;BME280;59485;43.542;-5.676;2023-09-19T07:03:06;101844.03;;;18.15;100.00
71638;BME280;59485;43.542;-5.676;2023-09-19T07:05:34;101844.88;;;18.16;100.00
71638;BME280;59485;43.542;-5.676;2023-09-19T07:08:03;101846.56;;;18.10;100.00
71638;BME280;59485;43.542;-5.676;2023-09-19T07:10:29;101852.97;;;18.17;100.00
71638;BME280;59485;43.542;-5.676;2023-09-19T07:12:58;101848.50;;;18.29;100.00
71638;BME280;59485;43.542;-5.676;2023-09-19T07:15:24;101848.06;;;18.26;100.00
71638;BME280;59485;43.542;-5.676;2023-09-19T07:17:51;101843.78;;;18.30;100.00
71638;BME280;59485;43.542;-5.676;2023-09-19T07:20:18;101844.66;;;18.24;100.00
71638;BME280;59485;43.542;-5.676;2023-09-19T07:22:44;101846.56;;;18.30;100.00
71638;BME280;59485;43.542;-5.676;2023-09-19T07:25:10;101846.78;;;18.28;100.00
71638;BME280;59485;43.542;-5.676;2023-09-19T07:27:35;101847.00;;;18.33;100.00
71638;BME280;59485;43.542;-5.676;2023-09-19T07:30:01;101846.56;;;18.36;100.00
71638;BME280;59485;43.542;-5.676;2023-09-19T07:32:26;101850.41;;;18.42;100.00
71638;BME280;59485;43.542;-5.676;2023-09-19T07:34:52;101849.75;;;18.47;100.00
71638;BME280;59485;43.542;-5.676;2023-09-19T07:37:18;101851.25;;;18.49;100.00
71638;BME280;59485;43.542;-5.676;2023-09-19T07:39:43;101859.56;;;18.56;100.00
71638;BME280;59485;43.542;-5.676;2023-09-19T07:42:10;101851.69;;;18.59;100.00
71638;BME280;59485;43.542;-5.676;2023-09-19T07:44:36;101850.13;;;18.70;100.00
71638;BME280;59485;43.542;-5.676;2023-09-19T07:47:02;101841.38;;;18.73;100.00
71638;BME280;59485;43.542;-5.676;2023-09-19T07:49:28;101845.88;;;18.74;100.00
71638;BME280;59485;43.542;-5.676;2023-09-19T07:51:54;101849.22;;;18.89;100.00
71638;BME280;59485;43.542;-5.676;2023-09-19T07:54:20;101843.88;;;18.94;100.00
71638;BME280;59485;43.542;-5.676;2023-09-19T07:56:46;101840.91;;;18.96;100.00
71638;BME280;59485;43.542;-5.676;2023-09-19T07:59:12;101841.75;;;18.96;100.00
71638;BME280;59485;43.542;-5.676;2023-09-19T08:01:39;101836.59;;;19.00;100.00
71638;BME280;59485;43.542;-5.676;2023-09-19T08:04:07;101844.03;;;19.06;100.00
71638;BME280;59485;43.542;-5.676;2023-09-19T08:06:32;101843.81;;;19.07;100.00
71638;BME280;59485;43.542;-5.676;2023-09-19T08:08:58;101855.16;;;19.06;100.00
71638;BME280;59485;43.542;-5.676;2023-09-19T08:11:26;101854.03;;;19.20;100.00
71638;BME280;59485;43.542;-5.676;2023-09-19T08:13:51;101851.22;;;19.27;100.00
71638;BME280;59485;43.542;-5.676;2023-09-19T08:16:17;101839.63;;;19.36;100.00
71638;BME280;59485;43.542;-5.676;2023-09-19T08:18:48;101847.97;;;19.36;100.00
71638;BME280;59485;43.542;-5.676;2023-09-19T08:21:18;101839.56;;;19.43;100.00
71638;BME280;59485;43.542;-5.676;2023-09-19T08:23:44;101835.94;;;19.42;100.00
71638;BME280;59485;43.542;-5.676;2023-09-19T08:26:10;101835.97;;;19.49;100.00
71638;BME280;59485;43.542;-5.676;2023-09-19T08:28:36;101847.66;;;19.58;100.00
71638;BME280;59485;43.542;-5.676;2023-09-19T08:31:05;101842.91;;;19.65;100.00
71638;BME280;59485;43.542;-5.676;2023-09-19T08:33:36;101841.69;;;19.54;100.00
71638;BME280;59485;43.542;-5.676;2023-09-19T08:36:06;101835.84;;;19.62;100.00
71638;BME280;59485;43.542;-5.676;2023-09-19T08:38:34;101837.66;;;19.81;100.00
71638;BME280;59485;43.542;-5.676;2023-09-19T08:41:00;101839.78;;;19.86;100.00
71638;BME280;59485;43.542;-5.676;2023-09-19T08:43:27;101837.72;;;20.00;100.00
71638;BME280;59485;43.542;-5.676;2023-09-19T08:46:10;101836.13;;;20.10;100.00
71638;BME280;59485;43.542;-5.676;2023-09-19T08:48:42;101839.28;;;20.14;100.00
71638;BME280;59485;43.542;-5.676;2023-09-19T08:51:18;101838.97;;;20.29;100.00
71638;BME280;59485;43.542;-5.676;2023-09-19T08:56:32;101838.63;;;20.43;100.00
71638;BME280;59485;43.542;-5.676;2023-09-19T08:59:03;101840.81;;;20.59;100.00
71638;BME280;59485;43.542;-5.676;2023-09-19T09:01:38;101837.84;;;20.36;100.00
71638;BME280;59485;43.542;-5.676;2023-09-19T09:04:08;101825.19;;;20.58;100.00
71638;BME280;59485;43.542;-5.676;2023-09-19T09:06:38;101838.50;;;20.56;100.00
71638;BME280;59485;43.542;-5.676;2023-09-19T09:09:05;101826.75;;;20.54;100.00
71638;BME280;59485;43.542;-5.676;2023-09-19T09:11:33;101818.53;;;20.59;100.00
71638;BME280;59485;43.542;-5.676;2023-09-19T09:13:59;101818.06;;;20.63;100.00
71638;BME280;59485;43.542;-5.676;2023-09-19T09:16:24;101821.72;;;20.63;100.00
71638;BME280;59485;43.542;-5.676;2023-09-19T09:18:51;101823.78;;;20.68;100.00
71638;BME280;59485;43.542;-5.676;2023-09-19T09:21:20;101816.06;;;20.70;100.00
71638;BME280;59485;43.542;-5.676;2023-09-19T09:23:47;101813.59;;;20.62;100.00
71638;BME280;59485;43.542;-5.676;2023-09-19T09:26:13;101815.69;;;20.66;100.00
71638;BME280;59485;43.542;-5.676;2023-09-19T09:28:45;101813.97;;;20.83;100.00
71638;BME280;59485;43.542;-5.676;2023-09-19T09:31:24;101817.84;;;20.82;100.00
71638;BME280;59485;43.542;-5.676;2023-09-19T09:33:54;101813.72;;;20.85;100.00
71638;BME280;59485;43.542;-5.676;2023-09-19T09:36:39;101819.28;;;20.85;100.00
71638;BME280;59485;43.542;-5.676;2023-09-19T09:39:07;101806.69;;;20.82;100.00
71638;BME280;59485;43.542;-5.676;2023-09-19T09:41:44;101816.81;;;20.77;100.00
71638;BME280;59485;43.542;-5.676;2023-09-19T09:44:15;101811.66;;;20.80;100.00
71638;BME280;59485;43.542;-5.676;2023-09-19T09:46:43;101812.09;;;20.77;100.00
71638;BME280;59485;43.542;-5.676;2023-09-19T09:49:27;101811.97;;;20.90;100.00
71638;BME280;59485;43.542;-5.676;2023-09-19T09:52:04;101812.81;;;20.91;100.00
71638;BME280;59485;43.542;-5.676;2023-09-19T09:54:35;101804.78;;;20.83;100.00
71638;BME280;59485;43.542;-5.676;2023-09-19T09:57:11;101807.06;;;20.86;100.00
71638;BME280;59485;43.542;-5.676;2023-09-19T09:59:56;101810.25;;;20.89;100.00
71638;BME280;59485;43.542;-5.676;2023-09-19T10:02:37;101801.16;;;20.94;100.00
71638;BME280;59485;43.542;-5.676;2023-09-19T10:05:12;101805.22;;;20.98;100.00
71638;BME280;59485;43.542;-5.676;2023-09-19T10:07:41;101806.59;;;21.07;100.00
71638;BME280;59485;43.542;-5.676;2023-09-19T10:10:14;101793.81;;;21.18;100.00
71638;BME280;59485;43.542;-5.676;2023-09-19T10:12:51;101796.13;;;21.21;100.00
71638;BME280;59485;43.542;-5.676;2023-09-19T10:15:23;101801.13;;;21.30;100.00
71638;BME280;59485;43.542;-5.676;2023-09-19T10:17:52;101792.72;;;21.49;100.00
71638;BME280;59485;43.542;-5.676;2023-09-19T10:20:21;101789.22;;;21.53;100.00
71638;BME280;59485;43.542;-5.676;2023-09-19T10:23:09;101790.09;;;21.54;100.00
71638;BME280;59485;43.542;-5.676;2023-09-19T10:25:48;101788.25;;;21.59;100.00
71638;BME280;59485;43.542;-5.676;2023-09-19T10:28:15;101787.28;;;21.54;100.00
71638;BME280;59485;43.542;-5.676;2023-09-19T10:30:43;101791.78;;;21.55;100.00
71638;BME280;59485;43.542;-5.676;2023-09-19T10:33:11;101784.16;;;21.62;100.00
71638;BME280;59485;43.542;-5.676;2023-09-19T10:35:39;101785.84;;;21.63;100.00
71638;BME280;59485;43.542;-5.676;2023-09-19T10:38:10;101785.13;;;21.67;100.00
71638;BME280;59485;43.542;-5.676;2023-09-19T10:40:37;101778.59;;;21.74;100.00
71638;BME280;59485;43.542;-5.676;2023-09-19T10:43:11;101763.44;;;21.81;100.00
71638;BME280;59485;43.542;-5.676;2023-09-19T10:45:38;101764.56;;;21.92;100.00
71638;BME280;59485;43.542;-5.676;2023-09-19T10:48:05;101769.22;;;21.68;100.00
71638;BME280;59485;43.542;-5.676;2023-09-19T10:50:46;101765.81;;;21.66;100.00
71638;BME280;59485;43.542;-5.676;2023-09-19T10:53:16;101772.38;;;21.60;100.00
71638;BME280;59485;43.542;-5.676;2023-09-19T10:55:49;101765.16;;;21.41;100.00
71638;BME280;59485;43.542;-5.676;2023-09-19T10:58:28;101763.72;;;21.38;100.00
71638;BME280;59485;43.542;-5.676;2023-09-19T11:00:58;101766.25;;;21.40;100.00
71638;BME280;59485;43.542;-5.676;2023-09-19T11:03:44;101768.00;;;21.52;100.00
71638;BME280;59485;43.542;-5.676;2023-09-19T11:06:17;101767.75;;;21.54;100.00
71638;BME280;59485;43.542;-5.676;2023-09-19T11:08:57;101760.50;;;21.64;100.00
71638;BME280;59485;43.542;-5.676;2023-09-19T11:11:39;101768.97;;;21.58;100.00
71638;BME280;59485;43.542;-5.676;2023-09-19T11:30:38;101743.41;;;21.96;100.00
71638;BME280;59485;43.542;-5.676;2023-09-19T11:33:23;101741.38;;;21.91;100.00
71638;BME280;59485;43.542;-5.676;2023-09-19T11:43:52;101720.28;;;22.19;100.00
71638;BME280;59485;43.542;-5.676;2023-09-19T11:46:21;101723.06;;;22.07;100.00
71638;BME280;59485;43.542;-5.676;2023-09-19T11:48:51;101718.06;;;22.21;100.00
71638;BME280;59485;43.542;-5.676;2023-09-19T11:51:18;101719.41;;;22.18;100.00
71638;BME280;59485;43.542;-5.676;2023-09-19T11:53:46;101713.31;;;22.21;100.00
71638;BME280;59485;43.542;-5.676;2023-09-19T11:56:19;101715.63;;;22.36;100.00
71638;BME280;59485;43.542;-5.676;2023-09-19T11:58:46;101713.94;;;22.35;100.00
71638;BME280;59485;43.542;-5.676;2023-09-19T12:01:15;101711.84;;;22.30;100.00
71638;BME280;59485;43.542;-5.676;2023-09-19T12:03:47;101698.50;;;22.32;100.00
71638;BME280;59485;43.542;-5.676;2023-09-19T12:06:15;101703.75;;;22.05;100.00
71638;BME280;59485;43.542;-5.676;2023-09-19T12:08:43;101696.22;;;22.06;100.00
71638;BME280;59485;43.542;-5.676;2023-09-19T12:11:13;101701.28;;;22.21;100.00
71638;BME280;59485;43.542;-5.676;2023-09-19T12:13:44;101694.13;;;22.25;100.00
71638;BME280;59485;43.542;-5.676;2023-09-19T12:16:19;101689.72;;;22.40;100.00
71638;BME280;59485;43.542;-5.676;2023-09-19T12:18:50;101682.56;;;22.44;100.00
71638;BME280;59485;43.542;-5.676;2023-09-19T12:21:30;101685.63;;;22.31;100.00
71638;BME280;59485;43.542;-5.676;2023-09-19T12:24:17;101691.28;;;22.48;100.00
71638;BME280;59485;43.542;-5.676;2023-09-19T12:26:46;101687.56;;;22.31;100.00
71638;BME280;59485;43.542;-5.676;2023-09-19T12:29:19;101680.16;;;22.36;100.00
71638;BME280;59485;43.542;-5.676;2023-09-19T12:31:56;101684.50;;;22.44;100.00
71638;BME280;59485;43.542;-5.676;2023-09-19T12:34:30;101677.69;;;22.40;100.00
71638;BME280;59485;43.542;-5.676;2023-09-19T12:39:37;101680.25;;;22.41;100.00
71638;BME280;59485;43.542;-5.676;2023-09-19T12:42:03;101674.44;;;22.31;100.00
71638;BME280;59485;43.542;-5.676;2023-09-19T12:44:30;101676.47;;;22.48;100.00
71638;BME280;59485;43.542;-5.676;2023-09-19T12:46:55;101675.06;;;22.22;100.00
71638;BME280;59485;43.542;-5.676;2023-09-19T12:49:24;101673.88;;;22.06;100.00
71638;BME280;59485;43.542;-5.676;2023-09-19T12:51:55;101671.47;;;22.10;100.00
71638;BME280;59485;43.542;-5.676;2023-09-19T12:54:21;101664.97;;;22.21;100.00
71638;BME280;59485;43.542;-5.676;2023-09-19T12:56:47;101663.88;;;22.33;100.00
71638;BME280;59485;43.542;-5.676;2023-09-19T12:59:14;101659.06;;;22.17;100.00
71638;BME280;59485;43.542;-5.676;2023-09-19T13:01:42;101659.06;;;22.17;100.00
71638;BME280;59485;43.542;-5.676;2023-09-19T13:04:18;101657.44;;;22.21;100.00
71638;BME280;59485;43.542;-5.676;2023-09-19T13:06:46;101660.16;;;22.04;100.00
71638;BME280;59485;43.542;-5.676;2023-09-19T13:09:14;101663.41;;;22.13;100.00
71638;BME280;59485;43.542;-5.676;2023-09-19T13:11:40;101646.19;;;22.16;100.00
71638;BME280;59485;43.542;-5.676;2023-09-19T13:16:58;101642.16;;;22.12;100.00
71638;BME280;59485;43.542;-5.676;2023-09-19T13:19:39;101646.41;;;22.15;100.00
71638;BME280;59485;43.542;-5.676;2023-09-19T13:25:04;101634.03;;;22.11;100.00
71638;BME280;59485;43.542;-5.676;2023-09-19T13:27:32;101628.91;;;22.19;100.00
71638;BME280;59485;43.542;-5.676;2023-09-19T13:29:58;101621.13;;;22.21;100.00